Terminal Aerodrome Forecast
Issued by NWS Quad Cities IA IL

Home | Current Version | Previous Version | Text Only | Print | Product List | Glossary On
Versions: 1 2 3 4 5 6 7 8 9 10 11 12 13 14 15 16 17 18 19 20 21 22 23 24 25 26
066
FTUS43 KDVN 032002 AAA
TAFDBQ
TAF AMD
KDBQ 032002Z 0320/0418 32015G20KT P6SM VCSH OVC015
     FM040200 30015KT P6SM SCT015 OVC035
     FM040700 28008KT P6SM SCT035
     FM041300 24008KT P6SM BKN060=

USA.gov is the U.S. government's official web portal to all federal, state and local government web resources and services.